ROK weather

Rockhampton Airport
Rockhampton, Queensland, Australia

Public forecast

Using degrees Celsius for public forecast. Weather courtesy of forecast.io.

METAR (pilot weather report)

Retrieved 2018/09/21 13:00 UTC (20 minutes ago):

YBRK 211300Z AUTO 12007KT 9999 // SCT034 19/12 Q1024

TAF (pilot weather forecast)

Retrieved 2018/09/21 12:37 UTC (43 minutes ago):

TAF YBRK 211105Z 2112/2212 12010KT 9999 FEW025 FM211400 14008KT CAVOK FM212200 11014KT 9999 FEW030 FM220300 09015KT 9999 FEW040 FM220800 10010KT 9999 SCT045 FM221000 12007KT 9999 FEW025